sensor_id;sensor_type;location;lat;lon;timestamp;P1;durP1;ratioP1;P2;durP2;ratioP2
82352;SDS011;71954;47.430;18.920;2023-12-14T00:01:34;11.73;;;6.10;;
82352;SDS011;71954;47.430;18.920;2023-12-14T00:04:01;12.82;;;6.38;;
82352;SDS011;71954;47.430;18.920;2023-12-14T00:06:30;10.23;;;6.20;;
82352;SDS011;71954;47.430;18.920;2023-12-14T00:08:57;13.00;;;6.40;;
82352;SDS011;71954;47.430;18.920;2023-12-14T00:11:23;12.77;;;7.97;;
82352;SDS011;71954;47.430;18.920;2023-12-14T00:13:50;9.93;;;5.95;;
82352;SDS011;71954;47.430;18.920;2023-12-14T00:16:17;11.25;;;6.03;;
82352;SDS011;71954;47.430;18.920;2023-12-14T00:18:43;14.07;;;6.15;;
82352;SDS011;71954;47.430;18.920;2023-12-14T00:21:10;13.50;;;7.15;;
82352;SDS011;71954;47.430;18.920;2023-12-14T00:23:36;12.30;;;7.55;;
82352;SDS011;71954;47.430;18.920;2023-12-14T00:26:03;11.55;;;6.95;;
82352;SDS011;71954;47.430;18.920;2023-12-14T00:28:30;13.25;;;7.30;;
82352;SDS011;71954;47.430;18.920;2023-12-14T00:30:59;13.13;;;6.85;;
82352;SDS011;71954;47.430;18.920;2023-12-14T00:33:26;14.48;;;7.35;;
82352;SDS011;71954;47.430;18.920;2023-12-14T00:35:53;14.68;;;7.30;;
82352;SDS011;71954;47.430;18.920;2023-12-14T00:38:19;13.65;;;6.90;;
82352;SDS011;71954;47.430;18.920;2023-12-14T00:40:46;16.85;;;8.98;;
82352;SDS011;71954;47.430;18.920;2023-12-14T00:43:13;15.63;;;7.05;;
82352;SDS011;71954;47.430;18.920;2023-12-14T00:45:39;14.70;;;6.63;;
82352;SDS011;71954;47.430;18.920;2023-12-14T00:48:07;14.45;;;7.35;;
82352;SDS011;71954;47.430;18.920;2023-12-14T00:50:34;15.20;;;7.43;;
82352;SDS011;71954;47.430;18.920;2023-12-14T00:53:01;12.50;;;7.13;;
82352;SDS011;71954;47.430;18.920;2023-12-14T00:55:28;13.93;;;7.50;;
82352;SDS011;71954;47.430;18.920;2023-12-14T00:57:54;12.10;;;6.05;;
82352;SDS011;71954;47.430;18.920;2023-12-14T01:00:21;13.63;;;6.38;;
82352;SDS011;71954;47.430;18.920;2023-12-14T01:02:47;14.90;;;7.60;;
82352;SDS011;71954;47.430;18.920;2023-12-14T01:05:14;13.68;;;7.63;;
82352;SDS011;71954;47.430;18.920;2023-12-14T01:07:41;15.25;;;7.78;;
82352;SDS011;71954;47.430;18.920;2023-12-14T01:10:08;15.85;;;8.75;;
82352;SDS011;71954;47.430;18.920;2023-12-14T01:12:34;14.85;;;6.97;;
82352;SDS011;71954;47.430;18.920;2023-12-14T01:15:02;16.05;;;7.47;;
82352;SDS011;71954;47.430;18.920;2023-12-14T01:17:28;15.02;;;7.70;;
82352;SDS011;71954;47.430;18.920;2023-12-14T01:19:55;18.20;;;7.50;;
82352;SDS011;71954;47.430;18.920;2023-12-14T01:22:22;16.45;;;8.20;;
82352;SDS011;71954;47.430;18.920;2023-12-14T01:24:48;13.23;;;6.47;;
82352;SDS011;71954;47.430;18.920;2023-12-14T01:27:15;14.38;;;7.13;;
82352;SDS011;71954;47.430;18.920;2023-12-14T01:29:42;16.40;;;7.93;;
82352;SDS011;71954;47.430;18.920;2023-12-14T01:32:08;13.05;;;6.78;;
82352;SDS011;71954;47.430;18.920;2023-12-14T01:34:35;14.63;;;8.52;;
82352;SDS011;71954;47.430;18.920;2023-12-14T01:37:02;14.35;;;7.00;;
82352;SDS011;71954;47.430;18.920;2023-12-14T01:39:28;14.38;;;7.63;;
82352;SDS011;71954;47.430;18.920;2023-12-14T01:41:55;15.52;;;6.53;;
82352;SDS011;71954;47.430;18.920;2023-12-14T01:44:21;12.88;;;7.38;;
82352;SDS011;71954;47.430;18.920;2023-12-14T01:46:48;19.27;;;7.78;;
82352;SDS011;71954;47.430;18.920;2023-12-14T01:49:15;17.45;;;7.20;;
82352;SDS011;71954;47.430;18.920;2023-12-14T01:51:41;17.80;;;8.00;;
82352;SDS011;71954;47.430;18.920;2023-12-14T01:54:08;13.15;;;5.55;;
82352;SDS011;71954;47.430;18.920;2023-12-14T01:56:35;16.83;;;7.28;;
82352;SDS011;71954;47.430;18.920;2023-12-14T01:59:01;14.90;;;6.55;;
82352;SDS011;71954;47.430;18.920;2023-12-14T02:01:46;15.95;;;8.48;;
82352;SDS011;71954;47.430;18.920;2023-12-14T02:04:18;13.85;;;6.75;;
82352;SDS011;71954;47.430;18.920;2023-12-14T02:06:45;13.65;;;7.05;;
82352;SDS011;71954;47.430;18.920;2023-12-14T02:09:12;12.50;;;7.13;;
82352;SDS011;71954;47.430;18.920;2023-12-14T02:11:38;16.50;;;6.85;;
82352;SDS011;71954;47.430;18.920;2023-12-14T02:14:05;13.82;;;7.78;;
82352;SDS011;71954;47.430;18.920;2023-12-14T02:16:33;14.35;;;7.75;;
82352;SDS011;71954;47.430;18.920;2023-12-14T02:19:00;15.52;;;7.72;;
82352;SDS011;71954;47.430;18.920;2023-12-14T02:21:27;13.63;;;7.45;;
82352;SDS011;71954;47.430;18.920;2023-12-14T02:23:53;15.32;;;7.75;;
82352;SDS011;71954;47.430;18.920;2023-12-14T02:26:20;16.75;;;8.02;;
82352;SDS011;71954;47.430;18.920;2023-12-14T02:28:47;16.60;;;7.32;;
82352;SDS011;71954;47.430;18.920;2023-12-14T02:31:13;12.18;;;6.85;;
82352;SDS011;71954;47.430;18.920;2023-12-14T02:33:40;13.98;;;7.10;;
82352;SDS011;71954;47.430;18.920;2023-12-14T02:36:07;15.55;;;6.30;;
82352;SDS011;71954;47.430;18.920;2023-12-14T02:38:33;16.20;;;7.82;;
82352;SDS011;71954;47.430;18.920;2023-12-14T02:41:00;14.30;;;6.97;;
82352;SDS011;71954;47.430;18.920;2023-12-14T02:43:27;15.07;;;6.75;;
82352;SDS011;71954;47.430;18.920;2023-12-14T02:45:53;13.80;;;6.15;;
82352;SDS011;71954;47.430;18.920;2023-12-14T02:48:21;13.90;;;7.28;;
82352;SDS011;71954;47.430;18.920;2023-12-14T02:50:48;14.52;;;7.57;;
82352;SDS011;71954;47.430;18.920;2023-12-14T02:53:14;13.50;;;6.13;;
82352;SDS011;71954;47.430;18.920;2023-12-14T02:55:42;16.30;;;9.32;;
82352;SDS011;71954;47.430;18.920;2023-12-14T02:58:09;13.05;;;6.57;;
82352;SDS011;71954;47.430;18.920;2023-12-14T03:00:35;17.88;;;7.10;;
82352;SDS011;71954;47.430;18.920;2023-12-14T03:03:02;14.05;;;6.57;;
82352;SDS011;71954;47.430;18.920;2023-12-14T03:05:29;15.55;;;7.43;;
82352;SDS011;71954;47.430;18.920;2023-12-14T03:07:56;14.50;;;6.70;;
82352;SDS011;71954;47.430;18.920;2023-12-14T03:10:22;14.63;;;6.38;;
82352;SDS011;71954;47.430;18.920;2023-12-14T03:12:49;16.35;;;7.47;;
82352;SDS011;71954;47.430;18.920;2023-12-14T03:15:16;16.67;;;8.30;;
82352;SDS011;71954;47.430;18.920;2023-12-14T03:17:44;18.40;;;8.13;;
82352;SDS011;71954;47.430;18.920;2023-12-14T03:20:11;16.88;;;7.00;;
82352;SDS011;71954;47.430;18.920;2023-12-14T03:22:40;15.75;;;7.57;;
82352;SDS011;71954;47.430;18.920;2023-12-14T03:25:08;15.25;;;7.50;;
82352;SDS011;71954;47.430;18.920;2023-12-14T03:27:36;14.43;;;7.43;;
82352;SDS011;71954;47.430;18.920;2023-12-14T03:30:02;13.63;;;8.02;;
82352;SDS011;71954;47.430;18.920;2023-12-14T03:32:34;17.77;;;8.27;;
82352;SDS011;71954;47.430;18.920;2023-12-14T03:35:02;14.63;;;7.45;;
82352;SDS011;71954;47.430;18.920;2023-12-14T03:37:29;15.77;;;8.68;;
82352;SDS011;71954;47.430;18.920;2023-12-14T03:39:55;14.90;;;7.20;;
82352;SDS011;71954;47.430;18.920;2023-12-14T03:42:22;14.63;;;8.10;;
82352;SDS011;71954;47.430;18.920;2023-12-14T03:44:48;15.45;;;7.82;;
82352;SDS011;71954;47.430;18.920;2023-12-14T03:47:15;14.63;;;7.85;;
82352;SDS011;71954;47.430;18.920;2023-12-14T03:49:41;13.20;;;7.20;;
82352;SDS011;71954;47.430;18.920;2023-12-14T03:52:08;17.20;;;7.68;;
82352;SDS011;71954;47.430;18.920;2023-12-14T03:54:35;16.02;;;6.93;;
82352;SDS011;71954;47.430;18.920;2023-12-14T03:57:02;16.83;;;8.05;;
82352;SDS011;71954;47.430;18.920;2023-12-14T03:59:29;15.43;;;7.10;;
82352;SDS011;71954;47.430;18.920;2023-12-14T04:01:55;16.00;;;7.88;;
82352;SDS011;71954;47.430;18.920;2023-12-14T04:04:22;15.57;;;7.25;;
82352;SDS011;71954;47.430;18.920;2023-12-14T04:06:48;15.55;;;8.00;;
82352;SDS011;71954;47.430;18.920;2023-12-14T04:09:15;15.52;;;7.22;;
82352;SDS011;71954;47.430;18.920;2023-12-14T04:11:41;18.50;;;8.13;;
82352;SDS011;71954;47.430;18.920;2023-12-14T04:14:09;17.55;;;8.75;;
82352;SDS011;71954;47.430;18.920;2023-12-14T04:16:36;15.70;;;7.57;;
82352;SDS011;71954;47.430;18.920;2023-12-14T04:19:02;16.48;;;7.90;;
82352;SDS011;71954;47.430;18.920;2023-12-14T04:21:29;17.65;;;8.02;;
82352;SDS011;71954;47.430;18.920;2023-12-14T04:23:56;18.13;;;9.15;;
82352;SDS011;71954;47.430;18.920;2023-12-14T04:26:23;18.75;;;9.63;;
82352;SDS011;71954;47.430;18.920;2023-12-14T04:28:50;18.13;;;8.52;;
82352;SDS011;71954;47.430;18.920;2023-12-14T04:31:17;18.08;;;8.50;;
82352;SDS011;71954;47.430;18.920;2023-12-14T04:33:44;20.48;;;9.13;;
82352;SDS011;71954;47.430;18.920;2023-12-14T04:36:10;15.90;;;8.57;;
82352;SDS011;71954;47.430;18.920;2023-12-14T04:38:37;18.83;;;9.18;;
82352;SDS011;71954;47.430;18.920;2023-12-14T04:41:04;18.80;;;9.68;;
82352;SDS011;71954;47.430;18.920;2023-12-14T04:43:30;19.00;;;8.65;;
82352;SDS011;71954;47.430;18.920;2023-12-14T04:45:58;20.48;;;9.23;;
82352;SDS011;71954;47.430;18.920;2023-12-14T04:48:25;21.88;;;9.13;;
82352;SDS011;71954;47.430;18.920;2023-12-14T04:50:52;19.88;;;9.70;;
82352;SDS011;71954;47.430;18.920;2023-12-14T04:53:18;18.65;;;10.15;;
82352;SDS011;71954;47.430;18.920;2023-12-14T04:55:45;20.50;;;10.02;;
82352;SDS011;71954;47.430;18.920;2023-12-14T04:58:11;19.55;;;9.23;;
82352;SDS011;71954;47.430;18.920;2023-12-14T05:00:39;18.00;;;8.38;;
82352;SDS011;71954;47.430;18.920;2023-12-14T05:03:05;23.80;;;10.13;;
82352;SDS011;71954;47.430;18.920;2023-12-14T05:05:32;20.00;;;9.52;;
82352;SDS011;71954;47.430;18.920;2023-12-14T05:07:59;17.52;;;9.45;;
82352;SDS011;71954;47.430;18.920;2023-12-14T05:10:25;20.02;;;9.80;;
82352;SDS011;71954;47.430;18.920;2023-12-14T05:12:52;22.42;;;12.13;;
82352;SDS011;71954;47.430;18.920;2023-12-14T05:15:19;23.08;;;10.18;;
82352;SDS011;71954;47.430;18.920;2023-12-14T05:17:45;20.13;;;9.60;;
82352;SDS011;71954;47.430;18.920;2023-12-14T05:20:12;26.65;;;10.18;;
82352;SDS011;71954;47.430;18.920;2023-12-14T05:22:39;26.67;;;10.75;;
82352;SDS011;71954;47.430;18.920;2023-12-14T05:25:06;28.95;;;12.32;;
82352;SDS011;71954;47.430;18.920;2023-12-14T05:27:32;27.70;;;10.98;;
82352;SDS011;71954;47.430;18.920;2023-12-14T05:29:59;26.73;;;12.10;;
82352;SDS011;71954;47.430;18.920;2023-12-14T05:32:26;31.45;;;15.35;;
82352;SDS011;71954;47.430;18.920;2023-12-14T05:34:52;25.45;;;10.93;;
82352;SDS011;71954;47.430;18.920;2023-12-14T05:37:19;26.67;;;11.52;;
82352;SDS011;71954;47.430;18.920;2023-12-14T05:39:46;21.70;;;10.40;;
82352;SDS011;71954;47.430;18.920;2023-12-14T05:42:15;21.95;;;10.57;;
82352;SDS011;71954;47.430;18.920;2023-12-14T05:44:42;23.27;;;10.38;;
82352;SDS011;71954;47.430;18.920;2023-12-14T05:47:11;23.83;;;10.20;;
82352;SDS011;71954;47.430;18.920;2023-12-14T05:49:40;26.83;;;12.70;;
82352;SDS011;71954;47.430;18.920;2023-12-14T05:52:09;24.02;;;10.70;;
82352;SDS011;71954;47.430;18.920;2023-12-14T05:54:39;22.10;;;10.90;;
82352;SDS011;71954;47.430;18.920;2023-12-14T05:57:08;25.25;;;11.48;;
82352;SDS011;71954;47.430;18.920;2023-12-14T05:59:35;26.42;;;10.68;;
82352;SDS011;71954;47.430;18.920;2023-12-14T06:02:01;22.63;;;11.38;;
82352;SDS011;71954;47.430;18.920;2023-12-14T06:04:28;23.08;;;9.82;;
82352;SDS011;71954;47.430;18.920;2023-12-14T06:06:55;21.88;;;9.25;;
82352;SDS011;71954;47.430;18.920;2023-12-14T06:09:23;23.83;;;10.90;;
82352;SDS011;71954;47.430;18.920;2023-12-14T06:11:55;22.48;;;10.10;;
82352;SDS011;71954;47.430;18.920;2023-12-14T06:14:22;20.92;;;9.82;;
82352;SDS011;71954;47.430;18.920;2023-12-14T06:16:48;25.25;;;10.38;;
82352;SDS011;71954;47.430;18.920;2023-12-14T06:19:15;21.90;;;10.30;;
82352;SDS011;71954;47.430;18.920;2023-12-14T06:21:42;22.77;;;10.93;;
82352;SDS011;71954;47.430;18.920;2023-12-14T06:24:08;28.92;;;11.65;;
82352;SDS011;71954;47.430;18.920;2023-12-14T06:26:35;21.63;;;10.32;;
82352;SDS011;71954;47.430;18.920;2023-12-14T06:29:07;22.52;;;10.38;;
82352;SDS011;71954;47.430;18.920;2023-12-14T06:31:34;23.67;;;10.80;;
82352;SDS011;71954;47.430;18.920;2023-12-14T06:34:00;24.23;;;12.32;;
82352;SDS011;71954;47.430;18.920;2023-12-14T06:36:30;25.15;;;11.48;;
82352;SDS011;71954;47.430;18.920;2023-12-14T06:38:57;24.60;;;13.02;;
82352;SDS011;71954;47.430;18.920;2023-12-14T06:41:25;26.02;;;11.20;;
82352;SDS011;71954;47.430;18.920;2023-12-14T06:43:52;23.75;;;11.40;;
82352;SDS011;71954;47.430;18.920;2023-12-14T06:46:19;24.63;;;11.75;;
82352;SDS011;71954;47.430;18.920;2023-12-14T06:48:47;24.83;;;10.73;;
82352;SDS011;71954;47.430;18.920;2023-12-14T06:51:14;24.45;;;11.40;;
82352;SDS011;71954;47.430;18.920;2023-12-14T06:53:41;22.45;;;11.15;;
82352;SDS011;71954;47.430;18.920;2023-12-14T06:56:10;22.67;;;10.93;;
82352;SDS011;71954;47.430;18.920;2023-12-14T06:58:38;24.42;;;11.45;;
82352;SDS011;71954;47.430;18.920;2023-12-14T07:01:06;22.20;;;9.98;;
82352;SDS011;71954;47.430;18.920;2023-12-14T07:06:00;21.90;;;10.80;;
82352;SDS011;71954;47.430;18.920;2023-12-14T07:08:27;22.60;;;10.50;;
82352;SDS011;71954;47.430;18.920;2023-12-14T07:10:53;23.58;;;11.77;;
82352;SDS011;71954;47.430;18.920;2023-12-14T07:13:20;22.10;;;10.90;;
82352;SDS011;71954;47.430;18.920;2023-12-14T07:15:47;24.58;;;11.77;;
82352;SDS011;71954;47.430;18.920;2023-12-14T07:18:13;24.13;;;13.27;;
82352;SDS011;71954;47.430;18.920;2023-12-14T07:20:40;26.13;;;10.93;;
82352;SDS011;71954;47.430;18.920;2023-12-14T07:23:07;22.02;;;10.05;;
82352;SDS011;71954;47.430;18.920;2023-12-14T07:25:34;25.95;;;11.50;;
82352;SDS011;71954;47.430;18.920;2023-12-14T07:28:00;21.95;;;9.95;;
82352;SDS011;71954;47.430;18.920;2023-12-14T07:30:27;24.27;;;12.02;;
82352;SDS011;71954;47.430;18.920;2023-12-14T07:32:54;24.83;;;11.30;;
82352;SDS011;71954;47.430;18.920;2023-12-14T07:35:21;22.15;;;11.70;;
82352;SDS011;71954;47.430;18.920;2023-12-14T07:37:47;26.40;;;11.82;;
82352;SDS011;71954;47.430;18.920;2023-12-14T07:40:14;21.80;;;10.50;;
82352;SDS011;71954;47.430;18.920;2023-12-14T07:42:40;24.02;;;12.60;;
82352;SDS011;71954;47.430;18.920;2023-12-14T07:45:07;25.85;;;11.77;;
82352;SDS011;71954;47.430;18.920;2023-12-14T07:47:35;23.98;;;11.43;;
82352;SDS011;71954;47.430;18.920;2023-12-14T07:50:03;24.45;;;10.80;;
82352;SDS011;71954;47.430;18.920;2023-12-14T07:52:30;24.40;;;10.75;;
82352;SDS011;71954;47.430;18.920;2023-12-14T07:54:57;22.42;;;10.48;;
82352;SDS011;71954;47.430;18.920;2023-12-14T07:57:23;24.50;;;11.15;;
82352;SDS011;71954;47.430;18.920;2023-12-14T07:59:50;24.05;;;10.07;;
82352;SDS011;71954;47.430;18.920;2023-12-14T08:02:16;22.75;;;11.15;;
82352;SDS011;71954;47.430;18.920;2023-12-14T08:04:43;26.05;;;11.95;;
82352;SDS011;71954;47.430;18.920;2023-12-14T08:07:10;25.13;;;11.40;;
82352;SDS011;71954;47.430;18.920;2023-12-14T08:09:36;24.58;;;13.57;;
82352;SDS011;71954;47.430;18.920;2023-12-14T08:12:03;24.33;;;12.38;;
82352;SDS011;71954;47.430;18.920;2023-12-14T08:14:32;28.30;;;13.23;;
82352;SDS011;71954;47.430;18.920;2023-12-14T08:17:00;26.90;;;12.00;;
82352;SDS011;71954;47.430;18.920;2023-12-14T08:19:27;23.58;;;13.20;;
82352;SDS011;71954;47.430;18.920;2023-12-14T08:21:54;27.58;;;13.65;;
82352;SDS011;71954;47.430;18.920;2023-12-14T08:24:21;24.52;;;11.63;;
82352;SDS011;71954;47.430;18.920;2023-12-14T08:26:48;24.58;;;12.35;;
82352;SDS011;71954;47.430;18.920;2023-12-14T08:29:14;28.23;;;11.82;;
82352;SDS011;71954;47.430;18.920;2023-12-14T08:31:41;24.08;;;11.57;;
82352;SDS011;71954;47.430;18.920;2023-12-14T08:34:08;20.63;;;11.68;;
82352;SDS011;71954;47.430;18.920;2023-12-14T08:39:02;25.65;;;11.15;;
82352;SDS011;71954;47.430;18.920;2023-12-14T08:41:29;26.33;;;12.35;;
82352;SDS011;71954;47.430;18.920;2023-12-14T08:43:56;22.20;;;11.10;;
82352;SDS011;71954;47.430;18.920;2023-12-14T08:46:22;22.13;;;11.80;;
82352;SDS011;71954;47.430;18.920;2023-12-14T08:48:49;23.65;;;11.88;;
82352;SDS011;71954;47.430;18.920;2023-12-14T08:51:16;22.80;;;11.38;;
82352;SDS011;71954;47.430;18.920;2023-12-14T08:53:44;23.48;;;12.45;;
82352;SDS011;71954;47.430;18.920;2023-12-14T08:56:10;23.77;;;11.05;;
82352;SDS011;71954;47.430;18.920;2023-12-14T08:58:37;24.13;;;12.25;;
82352;SDS011;71954;47.430;18.920;2023-12-14T09:01:04;26.33;;;12.52;;
82352;SDS011;71954;47.430;18.920;2023-12-14T09:03:31;21.63;;;10.60;;
82352;SDS011;71954;47.430;18.920;2023-12-14T09:05:58;21.17;;;11.25;;
82352;SDS011;71954;47.430;18.920;2023-12-14T09:08:25;19.40;;;10.93;;
82352;SDS011;71954;47.430;18.920;2023-12-14T09:10:51;22.63;;;12.02;;
82352;SDS011;71954;47.430;18.920;2023-12-14T09:13:18;21.77;;;11.85;;
82352;SDS011;71954;47.430;18.920;2023-12-14T09:15:45;24.40;;;11.35;;
82352;SDS011;71954;47.430;18.920;2023-12-14T09:18:12;20.42;;;11.57;;
82352;SDS011;71954;47.430;18.920;2023-12-14T09:20:38;23.60;;;10.85;;
82352;SDS011;71954;47.430;18.920;2023-12-14T09:23:07;22.90;;;12.15;;
82352;SDS011;71954;47.430;18.920;2023-12-14T09:25:33;20.20;;;10.23;;
82352;SDS011;71954;47.430;18.920;2023-12-14T09:28:00;19.77;;;10.52;;
82352;SDS011;71954;47.430;18.920;2023-12-14T09:30:27;21.95;;;10.43;;
82352;SDS011;71954;47.430;18.920;2023-12-14T09:32:54;19.15;;;10.57;;
82352;SDS011;71954;47.430;18.920;2023-12-14T09:35:21;22.63;;;12.27;;
82352;SDS011;71954;47.430;18.920;2023-12-14T09:37:47;21.75;;;11.98;;
82352;SDS011;71954;47.430;18.920;2023-12-14T09:40:14;25.95;;;11.63;;
82352;SDS011;71954;47.430;18.920;2023-12-14T09:42:42;22.80;;;12.13;;
82352;SDS011;71954;47.430;18.920;2023-12-14T09:45:09;21.30;;;11.13;;
82352;SDS011;71954;47.430;18.920;2023-12-14T09:47:37;20.02;;;11.00;;
82352;SDS011;71954;47.430;18.920;2023-12-14T09:50:05;21.13;;;10.35;;
82352;SDS011;71954;47.430;18.920;2023-12-14T09:52:32;30.67;;;13.02;;
82352;SDS011;71954;47.430;18.920;2023-12-14T09:55:00;24.63;;;12.77;;
82352;SDS011;71954;47.430;18.920;2023-12-14T09:57:30;22.60;;;11.20;;
82352;SDS011;71954;47.430;18.920;2023-12-14T10:04:53;25.00;;;12.60;;
82352;SDS011;71954;47.430;18.920;2023-12-14T10:07:21;22.60;;;10.02;;
82352;SDS011;71954;47.430;18.920;2023-12-14T10:12:14;22.67;;;11.55;;
82352;SDS011;71954;47.430;18.920;2023-12-14T10:14:41;15.80;;;8.20;;
82352;SDS011;71954;47.430;18.920;2023-12-14T10:17:14;18.65;;;10.80;;
82352;SDS011;71954;47.430;18.920;2023-12-14T10:19:46;25.65;;;12.70;;
82352;SDS011;71954;47.430;18.920;2023-12-14T10:22:16;23.08;;;10.43;;
82352;SDS011;71954;47.430;18.920;2023-12-14T10:24:45;24.25;;;12.98;;
82352;SDS011;71954;47.430;18.920;2023-12-14T10:27:16;22.10;;;12.32;;
82352;SDS011;71954;47.430;18.920;2023-12-14T10:29:43;21.25;;;11.40;;
82352;SDS011;71954;47.430;18.920;2023-12-14T10:32:12;20.30;;;10.63;;
82352;SDS011;71954;47.430;18.920;2023-12-14T10:34:39;20.95;;;10.60;;
82352;SDS011;71954;47.430;18.920;2023-12-14T10:37:07;22.95;;;11.52;;
82352;SDS011;71954;47.430;18.920;2023-12-14T10:39:35;19.40;;;10.45;;
82352;SDS011;71954;47.430;18.920;2023-12-14T10:42:04;21.95;;;10.07;;
82352;SDS011;71954;47.430;18.920;2023-12-14T10:44:45;19.70;;;10.65;;
82352;SDS011;71954;47.430;18.920;2023-12-14T10:47:32;20.33;;;10.25;;
82352;SDS011;71954;47.430;18.920;2023-12-14T10:50:00;19.77;;;9.07;;
82352;SDS011;71954;47.430;18.920;2023-12-14T10:52:28;20.08;;;11.32;;
82352;SDS011;71954;47.430;18.920;2023-12-14T10:55:00;20.38;;;9.98;;
82352;SDS011;71954;47.430;18.920;2023-12-14T10:57:34;20.38;;;10.27;;
82352;SDS011;71954;47.430;18.920;2023-12-14T11:00:04;21.73;;;11.05;;
82352;SDS011;71954;47.430;18.920;2023-12-14T11:02:39;19.90;;;11.10;;
82352;SDS011;71954;47.430;18.920;2023-12-14T11:05:10;21.40;;;11.88;;
82352;SDS011;71954;47.430;18.920;2023-12-14T11:10:21;18.27;;;10.40;;
82352;SDS011;71954;47.430;18.920;2023-12-14T11:15:29;15.25;;;8.98;;
82352;SDS011;71954;47.430;18.920;2023-12-14T11:20:47;21.95;;;11.52;;
82352;SDS011;71954;47.430;18.920;2023-12-14T11:23:16;16.75;;;9.13;;
82352;SDS011;71954;47.430;18.920;2023-12-14T11:26:02;18.80;;;10.68;;
82352;SDS011;71954;47.430;18.920;2023-12-14T11:28:31;15.60;;;9.35;;
82352;SDS011;71954;47.430;18.920;2023-12-14T11:31:00;18.02;;;10.32;;
82352;SDS011;71954;47.430;18.920;2023-12-14T11:33:28;19.83;;;9.65;;
82352;SDS011;71954;47.430;18.920;2023-12-14T11:35:55;18.67;;;10.80;;
82352;SDS011;71954;47.430;18.920;2023-12-14T11:38:23;17.10;;;10.23;;
82352;SDS011;71954;47.430;18.920;2023-12-14T11:40:50;17.23;;;9.68;;
82352;SDS011;71954;47.430;18.920;2023-12-14T11:43:18;16.25;;;8.40;;
82352;SDS011;71954;47.430;18.920;2023-12-14T11:45:48;17.00;;;8.65;;
82352;SDS011;71954;47.430;18.920;2023-12-14T11:48:15;15.25;;;9.32;;
82352;SDS011;71954;47.430;18.920;2023-12-14T11:50:43;16.02;;;9.25;;
82352;SDS011;71954;47.430;18.920;2023-12-14T11:53:10;16.85;;;8.98;;
82352;SDS011;71954;47.430;18.920;2023-12-14T11:55:38;18.63;;;9.32;;
82352;SDS011;71954;47.430;18.920;2023-12-14T11:58:07;15.18;;;7.72;;
82352;SDS011;71954;47.430;18.920;2023-12-14T12:00:35;15.27;;;9.00;;
82352;SDS011;71954;47.430;18.920;2023-12-14T12:03:14;17.77;;;9.43;;
82352;SDS011;71954;47.430;18.920;2023-12-14T12:05:47;18.58;;;10.40;;
82352;SDS011;71954;47.430;18.920;2023-12-14T12:08:17;16.77;;;8.88;;
82352;SDS011;71954;47.430;18.920;2023-12-14T12:10:46;14.82;;;9.20;;
82352;SDS011;71954;47.430;18.920;2023-12-14T12:13:14;15.32;;;9.23;;
82352;SDS011;71954;47.430;18.920;2023-12-14T12:15:42;17.45;;;8.70;;
82352;SDS011;71954;47.430;18.920;2023-12-14T12:18:10;14.32;;;8.02;;
82352;SDS011;71954;47.430;18.920;2023-12-14T12:20:39;19.02;;;10.80;;
82352;SDS011;71954;47.430;18.920;2023-12-14T12:23:06;19.02;;;9.95;;
82352;SDS011;71954;47.430;18.920;2023-12-14T12:25:33;17.17;;;8.77;;
82352;SDS011;71954;47.430;18.920;2023-12-14T12:30:27;15.52;;;8.30;;
82352;SDS011;71954;47.430;18.920;2023-12-14T12:32:55;14.73;;;8.63;;
82352;SDS011;71954;47.430;18.920;2023-12-14T12:35:23;17.90;;;9.55;;
82352;SDS011;71954;47.430;18.920;2023-12-14T12:37:50;17.10;;;8.95;;
82352;SDS011;71954;47.430;18.920;2023-12-14T12:40:21;16.92;;;8.77;;
82352;SDS011;71954;47.430;18.920;2023-12-14T12:42:49;17.35;;;11.85;;
82352;SDS011;71954;47.430;18.920;2023-12-14T12:47:44;17.42;;;10.35;;
82352;SDS011;71954;47.430;18.920;2023-12-14T12:50:12;18.70;;;10.10;;
82352;SDS011;71954;47.430;18.920;2023-12-14T12:55:05;15.57;;;8.70;;
82352;SDS011;71954;47.430;18.920;2023-12-14T12:57:33;16.65;;;9.93;;
82352;SDS011;71954;47.430;18.920;2023-12-14T13:00:00;18.98;;;10.32;;
82352;SDS011;71954;47.430;18.920;2023-12-14T13:02:27;14.00;;;9.45;;
82352;SDS011;71954;47.430;18.920;2023-12-14T13:04:53;18.50;;;9.02;;
82352;SDS011;71954;47.430;18.920;2023-12-14T13:07:20;17.30;;;10.40;;
82352;SDS011;71954;47.430;18.920;2023-12-14T13:09:47;18.05;;;9.80;;
82352;SDS011;71954;47.430;18.920;2023-12-14T13:12:14;16.48;;;9.75;;
82352;SDS011;71954;47.430;18.920;2023-12-14T13:14:41;15.88;;;9.20;;
82352;SDS011;71954;47.430;18.920;2023-12-14T13:17:08;16.30;;;9.77;;
82352;SDS011;71954;47.430;18.920;2023-12-14T13:19:34;19.17;;;10.73;;
82352;SDS011;71954;47.430;18.920;2023-12-14T13:22:01;18.13;;;9.90;;
82352;SDS011;71954;47.430;18.920;2023-12-14T13:24:28;16.65;;;9.10;;
82352;SDS011;71954;47.430;18.920;2023-12-14T13:31:49;17.95;;;11.02;;
82352;SDS011;71954;47.430;18.920;2023-12-14T13:34:15;17.00;;;10.75;;
82352;SDS011;71954;47.430;18.920;2023-12-14T13:36:42;18.83;;;11.07;;
82352;SDS011;71954;47.430;18.920;2023-12-14T13:39:09;19.52;;;11.73;;
82352;SDS011;71954;47.430;18.920;2023-12-14T13:41:36;22.00;;;11.32;;
82352;SDS011;71954;47.430;18.920;2023-12-14T13:44:15;18.67;;;9.85;;
82352;SDS011;71954;47.430;18.920;2023-12-14T13:46:42;18.55;;;10.35;;
82352;SDS011;71954;47.430;18.920;2023-12-14T13:49:09;14.75;;;8.32;;
82352;SDS011;71954;47.430;18.920;2023-12-14T13:51:36;20.13;;;11.13;;
82352;SDS011;71954;47.430;18.920;2023-12-14T13:54:03;19.92;;;10.35;;
82352;SDS011;71954;47.430;18.920;2023-12-14T13:56:30;17.73;;;10.07;;
82352;SDS011;71954;47.430;18.920;2023-12-14T14:01:23;19.25;;;9.05;;
82352;SDS011;71954;47.430;18.920;2023-12-14T14:03:51;17.63;;;9.23;;
82352;SDS011;71954;47.430;18.920;2023-12-14T14:06:18;17.20;;;9.88;;
82352;SDS011;71954;47.430;18.920;2023-12-14T14:08:47;15.45;;;8.60;;
82352;SDS011;71954;47.430;18.920;2023-12-14T14:11:13;15.23;;;8.10;;
82352;SDS011;71954;47.430;18.920;2023-12-14T14:13:40;17.77;;;9.95;;
82352;SDS011;71954;47.430;18.920;2023-12-14T14:16:07;15.60;;;8.80;;
82352;SDS011;71954;47.430;18.920;2023-12-14T14:18:34;16.73;;;9.02;;
82352;SDS011;71954;47.430;18.920;2023-12-14T14:21:01;16.08;;;8.60;;
82352;SDS011;71954;47.430;18.920;2023-12-14T14:23:28;17.83;;;9.52;;
82352;SDS011;71954;47.430;18.920;2023-12-14T14:25:54;18.48;;;10.05;;
82352;SDS011;71954;47.430;18.920;2023-12-14T14:28:21;15.13;;;8.10;;
82352;SDS011;71954;47.430;18.920;2023-12-14T14:30:51;16.70;;;8.15;;
82352;SDS011;71954;47.430;18.920;2023-12-14T14:33:18;15.15;;;9.13;;
82352;SDS011;71954;47.430;18.920;2023-12-14T14:35:45;23.67;;;8.88;;
82352;SDS011;71954;47.430;18.920;2023-12-14T14:38:12;15.48;;;9.80;;
82352;SDS011;71954;47.430;18.920;2023-12-14T14:40:42;16.45;;;10.27;;
82352;SDS011;71954;47.430;18.920;2023-12-14T14:43:09;16.58;;;8.63;;
82352;SDS011;71954;47.430;18.920;2023-12-14T14:45:36;17.17;;;9.55;;
82352;SDS011;71954;47.430;18.920;2023-12-14T14:48:06;16.08;;;9.77;;
82352;SDS011;71954;47.430;18.920;2023-12-14T14:50:35;15.55;;;8.77;;
82352;SDS011;71954;47.430;18.920;2023-12-14T14:53:01;15.77;;;8.20;;